Time;durP1;ratioP1;P1;durP2;ratioP2;P2;SDS_P1;SDS_P2;PMS_P1;PMS_P2;Temp;Humidity;BMP_temperature;BMP_pressure;BME280_temperature;BME280_humidity;BME280_pressure;Samples;Min_cycle;Max_cycle;Signal;HPM_P1;HPM_P2
2023/01/24 00:00:14;;;;;;;38.33;22.42;;;;;;;-144.87;100.00;61487.56;5016369;28;20060;-77
2023/01/24 00:02:40;;;;;;;34.30;21.98;;;;;;;-144.87;100.00;61487.56;5006364;28;20103;-77
2023/01/24 00:05:07;;;;;;;34.05;21.55;;;;;;;-144.87;100.00;61487.56;4993683;28;20030;-77
2023/01/24 00:07:33;;;;;;;32.63;21.25;;;;;;;-144.87;100.00;61487.56;4993501;28;20049;-76
2023/01/24 00:09:59;;;;;;;34.60;21.15;;;;;;;-144.87;100.00;61487.56;4990872;28;20037;-76
2023/01/24 00:12:25;;;;;;;37.75;22.42;;;;;;;-144.87;100.00;61487.56;5020989;28;20499;-76
2023/01/24 00:14:53;;;;;;;33.92;22.08;;;;;;;-144.87;100.00;61487.56;5009669;28;20069;-76
2023/01/24 00:17:19;;;;;;;35.67;22.58;;;;;;;-144.87;100.00;61487.56;5025063;28;20556;-85
2023/01/24 00:19:45;;;;;;;35.78;22.77;;;;;;;-144.87;100.00;61487.56;5008778;28;20057;-76
2023/01/24 00:22:11;;;;;;;35.40;22.98;;;;;;;-144.87;100.00;61487.56;5004776;28;20036;-76
2023/01/24 00:24:38;;;;;;;35.90;23.13;;;;;;;-144.87;100.00;61487.56;5009893;28;20021;-76
2023/01/24 00:27:04;;;;;;;39.55;24.30;;;;;;;-144.87;100.00;61487.56;5004706;28;20041;-77
2023/01/24 00:29:30;;;;;;;37.10;23.13;;;;;;;-144.87;100.00;61487.56;4991489;28;20037;-76
2023/01/24 00:31:57;;;;;;;37.38;23.02;;;;;;;-144.87;100.00;61487.56;5037710;28;20057;-76
2023/01/24 00:34:23;;;;;;;36.45;22.73;;;;;;;-144.87;100.00;61487.56;5025702;28;20428;-76
2023/01/24 00:36:49;;;;;;;38.05;23.33;;;;;;;-144.87;100.00;61487.56;5021160;28;20053;-76
2023/01/24 00:39:15;;;;;;;36.88;23.40;;;;;;;-144.87;100.00;61487.56;5007722;28;20065;-76
2023/01/24 00:41:42;;;;;;;38.65;23.83;;;;;;;-144.87;100.00;61487.56;5041111;28;20408;-77
2023/01/24 00:44:08;;;;;;;36.22;23.15;;;;;;;-144.87;100.00;61487.56;5009455;28;20041;-76
2023/01/24 00:46:34;;;;;;;38.42;23.95;;;;;;;-144.87;100.00;61487.56;5037396;28;20100;-77
2023/01/24 00:49:00;;;;;;;39.42;24.58;;;;;;;-144.87;100.00;61487.56;5006987;28;20386;-77
2023/01/24 00:51:27;;;;;;;39.25;25.42;;;;;;;-144.87;100.00;61487.56;5008060;28;20042;-76
2023/01/24 00:53:53;;;;;;;37.45;23.50;;;;;;;-144.87;100.00;61487.56;4989856;28;20182;-76
2023/01/24 00:56:20;;;;;;;38.65;23.40;;;;;;;-144.87;100.00;61487.56;4991530;28;20050;-77
2023/01/24 00:58:46;;;;;;;34.25;21.27;;;;;;;-144.87;100.00;61487.56;4988485;28;20121;-76
2023/01/24 01:01:13;;;;;;;35.45;21.27;;;;;;;-144.87;100.00;61487.56;5006332;28;20030;-77
2023/01/24 01:03:39;;;;;;;35.30;21.42;;;;;;;-144.87;100.00;61487.56;5040788;28;20121;-76
2023/01/24 01:06:13;;;;;;;34.20;21.20;;;;;;;-144.87;100.00;61487.56;5021142;28;20034;-76
2023/01/24 01:08:39;;;;;;;37.60;22.33;;;;;;;-144.87;100.00;61487.56;5018763;28;20115;-76
2023/01/24 01:11:06;;;;;;;34.70;22.52;;;;;;;-144.87;100.00;61487.56;5006629;28;20377;-76
2023/01/24 01:13:32;;;;;;;35.17;22.55;;;;;;;-144.87;100.00;61487.56;4987722;28;20112;-76
2023/01/24 01:16:10;;;;;;;33.30;20.50;;;;;;;-144.87;100.00;61487.56;5005948;28;20696;-78
2023/01/24 01:18:37;;;;;;;34.85;21.63;;;;;;;-144.87;100.00;61487.56;5007211;28;20026;-78
2023/01/24 01:21:04;;;;;;;33.50;20.67;;;;;;;-144.87;100.00;61487.56;5040997;28;20042;-78
2023/01/24 01:23:31;;;;;;;35.28;22.00;;;;;;;-144.87;100.00;61487.56;4990938;28;20041;-78
2023/01/24 01:26:01;;;;;;;34.33;21.95;;;;;;;-144.87;100.00;61487.56;4991234;28;20034;-76
2023/01/24 01:28:28;;;;;;;36.22;21.58;;;;;;;-144.87;100.00;61487.56;5022068;28;20198;-76
2023/01/24 01:30:54;;;;;;;36.75;22.75;;;;;;;-144.87;100.00;61487.56;5006824;28;20065;-77
2023/01/24 01:33:21;;;;;;;38.85;22.83;;;;;;;-144.87;100.00;61487.56;5023016;28;20084;-79
2023/01/24 01:35:48;;;;;;;39.38;23.20;;;;;;;-144.87;100.00;61487.56;5007483;28;20178;-76
2023/01/24 01:38:15;;;;;;;37.72;23.63;;;;;;;-144.87;100.00;61487.56;4973767;28;20394;-77
2023/01/24 01:40:41;;;;;;;37.35;23.67;;;;;;;-144.87;100.00;61487.56;4989306;28;20059;-77
2023/01/24 01:43:17;;;;;;;40.85;23.90;;;;;;;-144.87;100.00;61487.56;5004456;28;20377;-77
2023/01/24 01:45:45;;;;;;;36.03;22.48;;;;;;;-144.87;100.00;61487.56;5035851;28;20033;-77
2023/01/24 01:48:31;;;;;;;38.97;22.55;;;;;;;-144.87;100.00;61487.56;5020714;28;20025;-78
2023/01/24 01:51:19;;;;;;;44.03;23.95;;;;;;;-144.87;100.00;61487.56;5020463;28;20137;-77
2023/01/24 01:53:56;;;;;;;43.55;26.02;;;;;;;-144.87;100.00;61487.56;5004169;28;20065;-77
2023/01/24 01:56:29;;;;;;;42.00;25.13;;;;;;;-144.87;100.00;61487.56;5036491;28;20077;-76
2023/01/24 01:58:59;;;;;;;42.83;26.60;;;;;;;-144.87;100.00;61487.56;5040017;28;20453;-76
2023/01/24 02:01:26;;;;;;;41.08;25.20;;;;;;;-144.87;100.00;61487.56;5042993;28;20022;-75
2023/01/24 02:04:08;;;;;;;41.25;26.08;;;;;;;-144.87;100.00;61487.56;5020089;28;20046;-76
2023/01/24 02:06:47;;;;;;;43.13;26.52;;;;;;;-144.87;100.00;61487.56;5033690;28;20033;-76
2023/01/24 02:09:16;;;;;;;38.95;25.67;;;;;;;-144.87;100.00;61487.56;5010440;28;20484;-77
2023/01/24 02:11:43;;;;;;;40.65;25.25;;;;;;;-144.87;100.00;61487.56;5023849;28;20128;-77
2023/01/24 02:16:56;;;;;;;41.25;24.98;;;;;;;-144.87;100.00;61487.56;5007939;28;20037;-77
2023/01/24 02:19:34;;;;;;;42.03;25.83;;;;;;;-144.87;100.00;61487.56;5019883;28;20041;-77
2023/01/24 02:22:13;;;;;;;40.78;25.67;;;;;;;-144.87;100.00;61487.56;5035354;28;20421;-77
2023/01/24 02:24:46;;;;;;;47.33;27.45;;;;;;;-144.87;100.00;61487.56;5042193;28;20029;-76
2023/01/24 02:27:12;;;;;;;46.40;29.10;;;;;;;-144.87;100.00;61487.56;5023940;28;20117;-77
2023/01/24 02:29:39;;;;;;;42.42;26.77;;;;;;;-144.87;100.00;61487.56;5043112;28;20053;-77
2023/01/24 02:32:07;;;;;;;42.40;26.52;;;;;;;-144.87;100.00;61487.56;5023625;28;20030;-76
2023/01/24 02:34:34;;;;;;;41.25;24.98;;;;;;;-144.87;100.00;61487.56;5021587;28;20030;-77
2023/01/24 02:37:05;;;;;;;44.30;25.42;;;;;;;-144.87;100.00;61487.56;5010179;28;20052;-77
2023/01/24 02:39:40;;;;;;;39.33;23.40;;;;;;;-144.87;100.00;61487.56;4993237;28;20034;-77
2023/01/24 02:42:10;;;;;;;40.15;24.83;;;;;;;-144.87;100.00;61487.56;5040869;28;20057;-77
2023/01/24 02:44:42;;;;;;;37.95;22.92;;;;;;;-144.87;100.00;61487.56;4994509;28;20171;-77
2023/01/24 02:47:09;;;;;;;37.20;22.92;;;;;;;-144.87;100.00;61487.56;5041918;28;20048;-77
2023/01/24 02:49:35;;;;;;;37.78;23.25;;;;;;;-144.87;100.00;61487.56;5010317;28;20121;-78
2023/01/24 02:54:46;;;;;;;38.33;23.00;;;;;;;-144.87;100.00;61487.56;5026204;28;20045;-76
2023/01/24 02:59:57;;;;;;;36.08;21.10;;;;;;;-144.87;100.00;61487.56;5031615;28;20425;-76
2023/01/24 03:02:24;;;;;;;34.83;21.77;;;;;;;-144.87;100.00;61487.56;5023309;28;20069;-77
2023/01/24 03:04:50;;;;;;;36.05;21.42;;;;;;;-144.87;100.00;61487.56;5019511;28;20049;-77
2023/01/24 03:07:18;;;;;;;37.92;21.70;;;;;;;-144.87;100.00;61487.56;5024426;28;20034;-77
2023/01/24 03:09:50;;;;;;;35.22;21.45;;;;;;;-144.87;100.00;61487.56;4993606;28;20067;-77
2023/01/24 03:34:32;;;;;;;38.47;23.90;;;;;;;-144.87;100.00;61487.56;5006193;28;20408;-77
2023/01/24 03:37:00;;;;;;;36.03;22.65;;;;;;;-144.87;100.00;61487.56;5034967;28;20058;-76
2023/01/24 03:42:12;;;;;;;34.72;22.45;;;;;;;-144.87;100.00;61487.56;5002325;28;20038;-76
2023/01/24 03:44:38;;;;;;;37.88;23.58;;;;;;;-144.87;100.00;61487.56;5023592;28;20034;-76
2023/01/24 03:47:05;;;;;;;40.65;24.30;;;;;;;-144.87;100.00;61487.56;5007985;28;20369;-76
2023/01/24 03:52:28;;;;;;;39.25;23.50;;;;;;;-144.87;100.00;61487.56;5006371;28;20046;-76
2023/01/24 03:54:58;;;;;;;37.20;23.97;;;;;;;-144.87;100.00;61487.56;5022643;28;20030;-76
2023/01/24 03:57:26;;;;;;;38.90;24.20;;;;;;;-144.87;100.00;61487.56;5024037;28;20325;-76
2023/01/24 03:59:54;;;;;;;39.35;24.52;;;;;;;-144.87;100.00;61487.56;5021579;28;20120;-76
2023/01/24 04:02:21;;;;;;;38.65;23.92;;;;;;;-144.87;100.00;61487.56;4972855;28;20380;-77
2023/01/24 04:07:33;;;;;;;38.83;23.85;;;;;;;-144.87;100.00;61487.56;5024083;28;20053;-76
2023/01/24 04:10:03;;;;;;;38.97;23.88;;;;;;;-144.87;100.00;61487.56;5007469;28;20484;-76
2023/01/24 04:12:35;;;;;;;39.92;24.15;;;;;;;-144.87;100.00;61487.56;5005887;28;20067;-76
2023/01/24 04:15:03;;;;;;;41.78;25.67;;;;;;;-144.87;100.00;61487.56;5013605;28;20027;-76
2023/01/24 04:17:29;;;;;;;41.13;25.65;;;;;;;-144.87;100.00;61487.56;5025029;28;20038;-76
2023/01/24 04:19:56;;;;;;;42.67;26.35;;;;;;;-144.87;100.00;61487.56;5021186;28;20030;-76
2023/01/24 04:22:24;;;;;;;39.80;24.42;;;;;;;-144.87;100.00;61487.56;5023297;28;20082;-76
2023/01/24 04:24:53;;;;;;;41.83;25.02;;;;;;;-144.87;100.00;61487.56;5040444;28;20037;-75
2023/01/24 04:27:21;;;;;;;41.40;24.17;;;;;;;-144.87;100.00;61487.56;5047974;28;20475;-76
2023/01/24 04:30:04;;;;;;;41.53;25.45;;;;;;;-144.87;100.00;61487.56;5027116;28;20128;-77
2023/01/24 04:32:33;;;;;;;40.83;24.90;;;;;;;-144.87;100.00;61487.56;5007881;28;20029;-76
2023/01/24 04:35:04;;;;;;;38.53;23.10;;;;;;;-144.87;100.00;61487.56;5036095;28;20041;-79
2023/01/24 04:37:48;;;;;;;42.63;23.88;;;;;;;-144.87;100.00;61487.56;4962176;28;20042;-76
2023/01/24 04:40:19;;;;;;;42.97;24.10;;;;;;;-144.87;100.00;61487.56;5018261;28;20036;-76
2023/01/24 04:42:45;;;;;;;36.67;22.40;;;;;;;-144.87;100.00;61487.56;5039318;28;20061;-78
2023/01/24 04:45:11;;;;;;;37.10;22.75;;;;;;;-144.87;100.00;61487.56;5006929;28;20061;-76
2023/01/24 04:47:38;;;;;;;41.83;22.67;;;;;;;-144.87;100.00;61487.56;4991216;28;20029;-78
2023/01/24 04:50:06;;;;;;;38.63;22.90;;;;;;;-144.87;100.00;61487.56;5020284;28;20104;-76
2023/01/24 04:52:33;;;;;;;39.63;23.48;;;;;;;-144.87;100.00;61487.56;5003442;28;20030;-77
2023/01/24 04:55:06;;;;;;;37.95;22.95;;;;;;;-144.87;100.00;61487.56;5004677;28;20045;-77
2023/01/24 04:57:33;;;;;;;40.50;22.30;;;;;;;-144.87;100.00;61487.56;5040311;28;20588;-76
2023/01/24 05:00:00;;;;;;;42.72;24.42;;;;;;;-144.87;100.00;61487.56;4989377;28;20115;-77
2023/01/24 05:02:26;;;;;;;41.03;25.05;;;;;;;-144.87;100.00;61487.56;5023475;28;20053;-77
2023/01/24 05:04:53;;;;;;;42.15;23.67;;;;;;;-144.87;100.00;61487.56;5016669;28;20038;-76
2023/01/24 05:07:19;;;;;;;40.80;25.15;;;;;;;-144.87;100.00;61487.56;5003765;28;20045;-77
2023/01/24 05:09:53;;;;;;;42.08;24.67;;;;;;;-144.87;100.00;61487.56;5019916;28;20103;-76
2023/01/24 05:12:19;;;;;;;38.38;23.67;;;;;;;-144.87;100.00;61487.56;5038026;28;20042;-77
2023/01/24 05:14:45;;;;;;;42.85;24.73;;;;;;;-144.87;100.00;61487.56;5004417;28;20381;-76
2023/01/24 05:17:12;;;;;;;43.90;25.30;;;;;;;-144.87;100.00;61487.56;5037323;28;20030;-77
2023/01/24 05:19:39;;;;;;;41.30;25.60;;;;;;;-144.87;100.00;61487.56;5002488;28;20038;-76
2023/01/24 05:22:06;;;;;;;43.70;26.88;;;;;;;-144.87;100.00;61487.56;5004031;28;20491;-77
2023/01/24 05:24:37;;;;;;;43.15;25.63;;;;;;;-144.87;100.00;61487.56;5039152;28;20026;-77
2023/01/24 05:27:05;;;;;;;40.53;23.80;;;;;;;-144.87;100.00;61487.56;5004632;28;20057;-76
2023/01/24 05:29:34;;;;;;;41.03;25.45;;;;;;;-144.87;100.00;61487.56;5004613;28;20044;-77
2023/01/24 05:32:03;;;;;;;45.83;27.20;;;;;;;-144.87;100.00;61487.56;5020741;28;20056;-77
2023/01/24 05:34:29;;;;;;;42.88;26.33;;;;;;;-144.87;100.00;61487.56;4990375;28;20030;-77
2023/01/24 05:36:57;;;;;;;44.80;27.35;;;;;;;-144.87;100.00;61487.56;5020968;28;20736;-77
2023/01/24 05:39:23;;;;;;;48.63;26.52;;;;;;;-144.87;100.00;61487.56;5036416;28;20042;-76
2023/01/24 05:41:49;;;;;;;42.80;25.95;;;;;;;-144.87;100.00;61487.56;4987821;28;20120;-76
2023/01/24 05:44:18;;;;;;;46.20;27.13;;;;;;;-144.87;100.00;61487.56;5037635;28;20030;-76
2023/01/24 05:46:47;;;;;;;46.78;26.13;;;;;;;-144.87;100.00;61487.56;5020778;28;20037;-77
2023/01/24 05:49:23;;;;;;;43.58;26.67;;;;;;;-144.87;100.00;61487.56;5020663;28;20049;-77
2023/01/24 05:51:50;;;;;;;46.05;26.92;;;;;;;-144.87;100.00;61487.56;5017146;28;20129;-77
2023/01/24 05:54:32;;;;;;;48.00;26.95;;;;;;;-144.87;100.00;61487.56;5021640;28;20385;-77
2023/01/24 05:57:01;;;;;;;46.78;27.35;;;;;;;-144.87;100.00;61487.56;5019807;28;20041;-76
2023/01/24 05:59:36;;;;;;;49.42;29.83;;;;;;;-144.87;100.00;61487.56;4999932;28;20056;-76
2023/01/24 06:02:03;;;;;;;50.30;28.05;;;;;;;-144.87;100.00;61487.56;5020126;28;20377;-76
2023/01/24 06:04:29;;;;;;;48.45;28.80;;;;;;;-144.87;100.00;61487.56;5019711;28;20160;-76
2023/01/24 06:06:55;;;;;;;49.63;28.40;;;;;;;-144.87;100.00;61487.56;5036690;28;20107;-77
2023/01/24 06:09:22;;;;;;;48.95;29.17;;;;;;;-144.87;100.00;61487.56;5023643;28;20029;-77
2023/01/24 06:11:48;;;;;;;50.47;30.05;;;;;;;-144.87;100.00;61487.56;5040454;28;20037;-76
2023/01/24 06:14:18;;;;;;;47.80;28.88;;;;;;;-144.87;100.00;61487.56;5041763;28;20568;-76
2023/01/24 06:16:45;;;;;;;51.97;28.77;;;;;;;-144.87;100.00;61487.56;5014736;28;20041;-76
2023/01/24 06:19:14;;;;;;;54.35;29.38;;;;;;;-144.87;100.00;61487.56;5035004;28;20025;-77
2023/01/24 06:21:44;;;;;;;49.38;28.13;;;;;;;-144.87;100.00;61487.56;5040519;28;20037;-77
2023/01/24 06:24:18;;;;;;;52.28;28.75;;;;;;;-144.87;100.00;61487.56;5023557;28;20037;-78
2023/01/24 06:27:05;;;;;;;50.40;29.42;;;;;;;-144.87;100.00;61487.56;5002611;28;20079;-77
2023/01/24 06:29:32;;;;;;;51.10;29.13;;;;;;;-144.87;100.00;61487.56;5008764;28;20041;-77
2023/01/24 06:32:18;;;;;;;50.22;28.45;;;;;;;-144.87;100.00;61487.56;5007252;28;20046;-77
2023/01/24 06:35:07;;;;;;;48.58;26.35;;;;;;;-144.87;100.00;61487.56;5000470;28;20029;-78
2023/01/24 06:37:47;;;;;;;51.47;28.77;;;;;;;-144.87;100.00;61487.56;5039480;28;20037;-77
2023/01/24 06:40:15;;;;;;;48.88;28.00;;;;;;;-144.87;100.00;61487.56;5024238;28;20036;-77
2023/01/24 06:42:43;;;;;;;52.70;29.75;;;;;;;-144.87;100.00;61487.56;5040933;28;20454;-77
2023/01/24 06:45:10;;;;;;;50.10;28.27;;;;;;;-144.87;100.00;61487.56;5007274;28;20034;-78
2023/01/24 06:47:37;;;;;;;50.85;28.40;;;;;;;-144.87;100.00;61487.56;5007248;28;20042;-77
2023/01/24 06:50:06;;;;;;;52.78;29.02;;;;;;;-144.87;100.00;61487.56;5008987;28;20033;-76
2023/01/24 06:52:35;;;;;;;49.90;28.65;;;;;;;-144.87;100.00;61487.56;5024259;28;20507;-76
2023/01/24 06:55:01;;;;;;;52.00;28.35;;;;;;;-144.87;100.00;61487.56;5008086;28;20045;-76
2023/01/24 06:57:28;;;;;;;54.70;29.67;;;;;;;-144.87;100.00;61487.56;5014459;28;20052;-76
2023/01/24 06:59:54;;;;;;;52.42;29.20;;;;;;;-144.87;100.00;61487.56;5027445;28;20038;-77
2023/01/24 07:02:20;;;;;;;51.53;29.55;;;;;;;-144.87;100.00;61487.56;5026156;28;20083;-76
2023/01/24 07:04:46;;;;;;;53.83;29.70;;;;;;;-144.87;100.00;61487.56;5007643;28;20100;-76
2023/01/24 07:07:13;;;;;;;55.33;31.13;;;;;;;-144.87;100.00;61487.56;5037566;28;20037;-77
2023/01/24 07:09:39;;;;;;;51.67;29.45;;;;;;;-144.87;100.00;61487.56;5007667;28;20383;-77
2023/01/24 07:12:05;;;;;;;51.42;28.83;;;;;;;-144.87;100.00;61487.56;5007910;28;20124;-76
2023/01/24 07:14:31;;;;;;;54.40;30.05;;;;;;;-144.87;100.00;61487.56;5018251;28;20045;-76
2023/01/24 07:16:58;;;;;;;52.70;29.17;;;;;;;-144.87;100.00;61487.56;5022945;28;20586;-76
2023/01/24 07:19:25;;;;;;;55.60;31.38;;;;;;;-144.87;100.00;61487.56;5042399;28;20408;-78
2023/01/24 07:21:53;;;;;;;55.60;30.90;;;;;;;-144.87;100.00;61487.56;5024591;28;20136;-78
2023/01/24 07:24:29;;;;;;;54.40;30.83;;;;;;;-144.87;100.00;61487.56;5019331;28;20049;-78
2023/01/24 07:26:56;;;;;;;54.92;30.52;;;;;;;-144.87;100.00;61487.56;5011606;28;20030;-81
2023/01/24 07:29:22;;;;;;;52.72;30.88;;;;;;;-144.87;100.00;61487.56;5003944;28;20247;-77
2023/01/24 07:31:49;;;;;;;53.47;30.30;;;;;;;-144.87;100.00;61487.56;5006730;28;20041;-76
2023/01/24 07:34:16;;;;;;;55.53;30.27;;;;;;;-144.87;100.00;61487.56;5012696;28;20412;-76
2023/01/24 07:36:43;;;;;;;51.97;30.33;;;;;;;-144.87;100.00;61487.56;5044770;28;20123;-78
2023/01/24 07:39:10;;;;;;;53.33;29.42;;;;;;;-144.87;100.00;61487.56;5014626;28;20129;-79
2023/01/24 07:41:37;;;;;;;52.00;29.17;;;;;;;-144.87;100.00;61487.56;5019175;28;20866;-77
2023/01/24 07:44:05;;;;;;;53.50;30.67;;;;;;;-144.87;100.00;61487.56;5042179;28;20034;-78
2023/01/24 07:46:35;;;;;;;55.03;29.27;;;;;;;-144.87;100.00;61487.56;5027742;28;20070;-77
2023/01/24 07:49:02;;;;;;;53.92;29.88;;;;;;;-144.87;100.00;61487.56;5028146;28;20042;-77
2023/01/24 07:51:28;;;;;;;52.97;29.63;;;;;;;-144.87;100.00;61487.56;5026907;28;20041;-78
2023/01/24 07:53:55;;;;;;;50.35;29.35;;;;;;;-144.87;100.00;61487.56;5025596;28;20038;-79
2023/01/24 07:56:21;;;;;;;54.22;30.05;;;;;;;-144.87;100.00;61487.56;5012583;28;20054;-78
2023/01/24 07:58:47;;;;;;;52.83;29.00;;;;;;;-144.87;100.00;61487.56;5045591;28;20058;-78
2023/01/24 08:01:18;;;;;;;54.75;29.92;;;;;;;-144.87;100.00;61487.56;5009987;28;20083;-78
2023/01/24 08:03:44;;;;;;;52.22;28.88;;;;;;;-144.87;100.00;61487.56;5010920;28;20037;-79
2023/01/24 08:06:10;;;;;;;49.45;28.23;;;;;;;-144.87;100.00;61487.56;5012530;28;20112;-79
2023/01/24 08:08:37;;;;;;;52.88;30.40;;;;;;;-144.87;100.00;61487.56;5043447;28;20366;-78
2023/01/24 08:11:03;;;;;;;54.15;29.27;;;;;;;-144.87;100.00;61487.56;5026410;28;20455;-80
2023/01/24 08:13:29;;;;;;;51.83;28.58;;;;;;;-144.87;100.00;61487.56;5018951;28;20429;-77
2023/01/24 08:15:56;;;;;;;51.28;28.15;;;;;;;-144.87;100.00;61487.56;5017958;28;20046;-78
2023/01/24 08:18:22;;;;;;;50.45;29.75;;;;;;;-144.87;100.00;61487.56;4996964;28;20110;-78
2023/01/24 08:20:49;;;;;;;50.17;27.52;;;;;;;-144.87;100.00;61487.56;5008425;28;20030;-78
2023/01/24 08:23:15;;;;;;;48.83;28.17;;;;;;;-144.87;100.00;61487.56;5036345;28;20038;-80
2023/01/24 08:25:41;;;;;;;51.50;28.23;;;;;;;-144.87;100.00;61487.56;5010775;28;20108;-78
2023/01/24 08:28:08;;;;;;;51.53;28.02;;;;;;;-144.87;100.00;61487.56;5008366;28;20084;-78
2023/01/24 08:30:34;;;;;;;48.17;27.55;;;;;;;-144.87;100.00;61487.56;5010029;28;20433;-78
2023/01/24 08:33:04;;;;;;;50.63;28.05;;;;;;;-144.87;100.00;61487.56;5010906;28;20147;-78
2023/01/24 08:35:34;;;;;;;50.97;28.15;;;;;;;-144.87;100.00;61487.56;5009036;28;20044;-78
2023/01/24 08:38:00;;;;;;;53.63;28.90;;;;;;;-144.87;100.00;61487.56;5037573;28;20037;-78
2023/01/24 08:40:27;;;;;;;54.50;30.10;;;;;;;-144.87;100.00;61487.56;5025866;28;20026;-78
2023/01/24 08:42:53;;;;;;;52.25;27.38;;;;;;;-144.87;100.00;61487.56;5041465;28;20100;-77
2023/01/24 08:45:19;;;;;;;50.97;28.70;;;;;;;-144.87;100.00;61487.56;5007100;28;20386;-83
2023/01/24 08:47:51;;;;;;;50.45;29.02;;;;;;;-144.87;100.00;61487.56;5021832;28;20040;-78
2023/01/24 08:50:19;;;;;;;49.13;27.80;;;;;;;-144.87;100.00;61487.56;5007717;28;20053;-78
2023/01/24 08:52:46;;;;;;;51.22;28.77;;;;;;;-144.87;100.00;61487.56;5040142;28;20033;-79
2023/01/24 08:55:14;;;;;;;50.40;28.50;;;;;;;-144.87;100.00;61487.56;5041153;28;20143;-79
2023/01/24 08:57:41;;;;;;;50.97;28.75;;;;;;;-144.87;100.00;61487.56;5022450;28;20103;-78
2023/01/24 09:00:08;;;;;;;50.83;28.63;;;;;;;-144.87;100.00;61487.56;5039736;28;20106;-78
2023/01/24 09:02:37;;;;;;;49.95;29.13;;;;;;;-144.87;100.00;61487.56;5006848;28;20037;-78
2023/01/24 09:05:08;;;;;;;52.38;29.92;;;;;;;-144.87;100.00;61487.56;5026503;28;20045;-78
2023/01/24 09:07:36;;;;;;;49.90;28.27;;;;;;;-144.87;100.00;61487.56;5042676;28;20033;-78
2023/01/24 09:10:03;;;;;;;48.88;27.95;;;;;;;-144.87;100.00;61487.56;5011785;28;20128;-78
2023/01/24 09:12:31;;;;;;;47.50;27.23;;;;;;;-144.87;100.00;61487.56;5027280;28;20041;-77
2023/01/24 09:14:58;;;;;;;53.00;28.17;;;;;;;-144.87;100.00;61487.56;5006821;28;20042;-77
2023/01/24 09:17:24;;;;;;;51.58;29.20;;;;;;;-144.87;100.00;61487.56;5010051;28;20505;-77
2023/01/24 09:19:50;;;;;;;50.55;29.73;;;;;;;-144.87;100.00;61487.56;5009994;28;20408;-77
2023/01/24 09:22:17;;;;;;;50.22;29.35;;;;;;;-144.87;100.00;61487.56;5026502;28;20041;-79
2023/01/24 09:24:43;;;;;;;50.00;29.80;;;;;;;-144.87;100.00;61487.56;5025252;28;20600;-77
2023/01/24 09:27:11;;;;;;;50.17;29.02;;;;;;;-144.87;100.00;61487.56;5042982;28;20038;-78
2023/01/24 09:29:37;;;;;;;51.75;28.27;;;;;;;-144.87;100.00;61487.56;5043166;28;20045;-77
2023/01/24 09:32:03;;;;;;;50.03;28.05;;;;;;;-144.87;100.00;61487.56;5040184;28;20045;-79
2023/01/24 09:34:30;;;;;;;47.70;27.67;;;;;;;-144.87;100.00;61487.56;5007426;28;20092;-78
2023/01/24 09:36:56;;;;;;;47.97;27.17;;;;;;;-144.87;100.00;61487.56;5042499;28;20037;-78
2023/01/24 09:39:22;;;;;;;50.83;28.15;;;;;;;-144.87;100.00;61487.56;5041405;28;20412;-77
2023/01/24 09:42:03;;;;;;;51.55;29.80;;;;;;;-144.87;100.00;61487.56;5021849;28;20496;-78
2023/01/24 09:44:35;;;;;;;49.03;28.00;;;;;;;-144.87;100.00;61487.56;5025917;28;20081;-77
2023/01/24 09:47:25;;;;;;;53.20;29.15;;;;;;;-144.87;100.00;61487.56;5010240;28;20034;-77
2023/01/24 09:49:56;;;;;;;51.63;29.17;;;;;;;-144.87;100.00;61487.56;4992494;28;20038;-79
2023/01/24 09:52:39;;;;;;;51.22;29.75;;;;;;;-144.87;100.00;61487.56;5024266;28;20378;-79
2023/01/24 09:55:23;;;;;;;50.25;29.02;;;;;;;-144.87;100.00;61487.56;5041953;28;20076;-78
2023/01/24 09:58:06;;;;;;;51.78;30.23;;;;;;;-144.87;100.00;61487.56;5040243;28;21015;-78
2023/01/24 10:00:37;;;;;;;52.80;28.40;;;;;;;-144.87;100.00;61487.56;4992497;28;20088;-79
2023/01/24 10:03:05;;;;;;;51.03;28.35;;;;;;;-144.87;100.00;61487.56;5009288;28;20481;-77
2023/01/24 10:05:39;;;;;;;48.05;28.13;;;;;;;-144.87;100.00;61487.56;5008386;28;20591;-78
2023/01/24 10:08:25;;;;;;;50.88;29.08;;;;;;;-144.87;100.00;61487.56;5024688;28;20481;-78
2023/01/24 10:11:27;;;;;;;52.33;28.35;;;;;;;-144.87;100.00;61487.56;5010191;28;20057;-77
2023/01/24 10:14:18;;;;;;;47.50;28.48;;;;;;;-144.87;100.00;61487.56;4997235;28;20057;-77
2023/01/24 10:17:17;;;;;;;46.08;27.05;;;;;;;-144.87;100.00;61487.56;5009821;28;20053;-77
2023/01/24 10:19:55;;;;;;;47.92;26.52;;;;;;;-144.87;100.00;61487.56;4992344;28;20128;-77
2023/01/24 10:22:31;;;;;;;47.63;26.98;;;;;;;-144.87;100.00;61487.56;5010267;28;20030;-80
2023/01/24 10:25:12;;;;;;;49.95;28.02;;;;;;;-144.87;100.00;61487.56;5024899;28;20030;-77
2023/01/24 10:27:48;;;;;;;49.53;28.05;;;;;;;-144.87;100.00;61487.56;5007920;28;20092;-78
2023/01/24 10:30:15;;;;;;;50.75;29.40;;;;;;;-144.87;100.00;61487.56;5009273;28;20034;-78
2023/01/24 10:32:43;;;;;;;54.30;28.85;;;;;;;-144.87;100.00;61487.56;5025390;28;20133;-77
2023/01/24 10:35:38;;;;;;;48.28;29.10;;;;;;;-144.87;100.00;61487.56;4992788;28;20045;-82
2023/01/24 10:38:07;;;;;;;49.80;28.00;;;;;;;-144.87;100.00;61487.56;5039775;28;20046;-82
2023/01/24 10:40:33;;;;;;;48.35;27.40;;;;;;;-144.87;100.00;61487.56;5042250;28;20045;-82
2023/01/24 10:43:05;;;;;;;47.80;27.48;;;;;;;-144.87;100.00;61487.56;5043591;28;20038;-83
2023/01/24 10:46:06;;;;;;;52.13;28.75;;;;;;;-144.87;100.00;61487.56;5013067;28;20033;-82
2023/01/24 10:48:47;;;;;;;48.42;27.92;;;;;;;-144.87;100.00;61487.56;5013847;28;20081;-83
2023/01/24 10:51:19;;;;;;;49.75;28.70;;;;;;;-144.87;100.00;61487.56;5005523;28;20043;-82
2023/01/24 10:53:46;;;;;;;47.65;26.60;;;;;;;-144.87;100.00;61487.56;5034908;28;20041;-82
2023/01/24 10:56:15;;;;;;;51.25;26.77;;;;;;;-144.87;100.00;61487.56;5013720;28;20394;-79
2023/01/24 10:59:12;;;;;;;46.05;26.52;;;;;;;-144.87;100.00;61487.56;4995379;28;20485;-78
2023/01/24 11:01:49;;;;;;;50.15;26.95;;;;;;;-144.87;100.00;61487.56;5045206;28;20105;-79
2023/01/24 11:04:25;;;;;;;45.35;26.00;;;;;;;-144.87;100.00;61487.56;5044718;28;20068;-77
2023/01/24 11:06:52;;;;;;;43.85;25.77;;;;;;;-144.87;100.00;61487.56;5045513;28;20457;-79
2023/01/24 11:09:39;;;;;;;45.47;25.75;;;;;;;-144.87;100.00;61487.56;5012366;28;20049;-78
2023/01/24 11:12:08;;;;;;;45.30;24.35;;;;;;;-144.87;100.00;61487.56;5044647;28;20038;-78
2023/01/24 11:14:35;;;;;;;44.75;24.52;;;;;;;-144.87;100.00;61487.56;5027166;28;20069;-78
2023/01/24 11:17:02;;;;;;;42.63;24.27;;;;;;;-144.87;100.00;61487.56;5013020;28;20504;-77
2023/01/24 11:19:38;;;;;;;45.58;25.27;;;;;;;-144.87;100.00;61487.56;4994847;28;20044;-78
2023/01/24 11:22:25;;;;;;;43.03;25.65;;;;;;;-144.87;100.00;61487.56;5011244;28;20099;-78
2023/01/24 11:24:57;;;;;;;43.03;24.20;;;;;;;-144.87;100.00;61487.56;5024744;28;20404;-78
2023/01/24 11:27:23;;;;;;;41.67;23.40;;;;;;;-144.87;100.00;61487.56;5041071;28;20037;-78
2023/01/24 11:30:12;;;;;;;44.60;24.50;;;;;;;-144.87;100.00;61487.56;5040995;28;20091;-77
2023/01/24 11:32:55;;;;;;;41.53;24.02;;;;;;;-144.87;100.00;61487.56;4998305;28;20115;-78
2023/01/24 11:35:35;;;;;;;41.42;23.15;;;;;;;-144.87;100.00;61487.56;5043478;28;20038;-79
2023/01/24 11:38:29;;;;;;;42.72;24.83;;;;;;;-144.87;100.00;61487.56;5028029;28;20049;-78
2023/01/24 11:41:07;;;;;;;40.10;23.35;;;;;;;-144.87;100.00;61487.56;5025048;28;20031;-78
2023/01/24 11:43:57;;;;;;;42.50;23.70;;;;;;;-144.87;100.00;61487.56;5023015;28;20048;-77
2023/01/24 11:46:30;;;;;;;41.08;23.75;;;;;;;-144.87;100.00;61487.56;5032386;28;20042;-78